Time;durP1;ratioP1;P1;durP2;ratioP2;P2;SDS_P1;SDS_P2;PMS_P1;PMS_P2;Temp;Humidity;BMP_temperature;BMP_pressure;BME280_temperature;BME280_humidity;BME280_pressure;Samples;Min_cycle;Max_cycle;Signal;HPM_P1;HPM_P2
2023/02/12 00:00:36;;;;;;;;;;;;;;;3.06;74.46;102835.66;107903;1256;60562;-81
2023/02/12 00:03:23;;;;;;;;;;;;;;;3.10;74.48;102836.00;107912;1254;124529;-81
2023/02/12 00:05:50;;;;;;;;;;;;;;;3.11;74.37;102842.48;107906;1257;73815;-81
2023/02/12 00:08:17;;;;;;;;;;;;;;;3.09;74.25;102841.87;107703;1257;66690;-82
2023/02/12 00:10:58;;;;;;;;;;;;;;;3.10;74.33;102846.56;107512;1259;123813;-85
2023/02/12 00:13:26;;;;;;;;;;;;;;;3.10;74.21;102855.10;108163;1254;59230;-81
2023/02/12 00:15:53;;;;;;;;;;;;;;;3.08;74.10;102857.16;107946;1254;123398;-81
2023/02/12 00:18:20;;;;;;;;;;;;;;;3.05;74.02;102859.00;107756;1255;72573;-86
2023/02/12 00:20:47;;;;;;;;;;;;;;;3.03;74.10;102869.41;107366;1257;123645;-81
2023/02/12 00:23:20;;;;;;;;;;;;;;;3.00;74.29;102876.95;107756;1254;71029;-86
2023/02/12 00:25:47;;;;;;;;;;;;;;;2.95;74.49;102881.52;107598;1254;60360;-86
2023/02/12 00:28:15;;;;;;;;;;;;;;;2.89;74.53;102880.65;107660;1254;125343;-85
2023/02/12 00:30:42;;;;;;;;;;;;;;;2.86;74.77;102876.77;107702;1254;73807;-85
2023/02/12 00:33:09;;;;;;;;;;;;;;;2.87;75.09;102880.98;107940;1254;124807;-80
2023/02/12 00:35:36;;;;;;;;;;;;;;;2.88;74.98;102884.52;107742;1254;72673;-86
2023/02/12 00:38:04;;;;;;;;;;;;;;;2.88;75.15;102886.41;107433;1254;61662;-86
2023/02/12 00:40:31;;;;;;;;;;;;;;;2.88;74.98;102887.30;107595;1254;124148;-86
2023/02/12 00:42:59;;;;;;;;;;;;;;;2.86;75.02;102894.05;107775;1257;72543;-85
2023/02/12 00:45:26;;;;;;;;;;;;;;;2.82;75.03;102898.92;107667;1254;124211;-85
2023/02/12 00:47:53;;;;;;;;;;;;;;;2.82;75.10;102903.75;107736;1254;71414;-85
2023/02/12 00:50:21;;;;;;;;;;;;;;;2.81;75.15;102897.21;107742;1254;60399;-86
2023/02/12 00:52:49;;;;;;;;;;;;;;;2.79;74.94;102898.71;107842;1255;123231;-86
2023/02/12 00:55:18;;;;;;;;;;;;;;;2.74;74.92;102903.56;108836;1254;72401;-86
2023/02/12 00:57:45;;;;;;;;;;;;;;;2.71;74.89;102905.54;108972;1254;123963;-85
2023/02/12 01:00:13;;;;;;;;;;;;;;;2.70;75.13;102908.24;109089;1254;72106;-81
2023/02/12 01:02:40;;;;;;;;;;;;;;;2.72;75.15;102911.52;108879;1254;123726;-81
2023/02/12 01:05:07;;;;;;;;;;;;;;;2.71;75.05;102911.47;108990;1254;60740;-81
2023/02/12 01:07:34;;;;;;;;;;;;;;;2.70;75.18;102912.16;109009;1254;74279;-80
2023/02/12 01:10:02;;;;;;;;;;;;;;;2.70;75.17;102914.94;108822;1258;123281;-81
2023/02/12 01:12:29;;;;;;;;;;;;;;;2.70;75.28;102918.62;108695;1254;72957;-81
2023/02/12 01:14:56;;;;;;;;;;;;;;;2.70;75.18;102922.79;107508;1256;124754;-81
2023/02/12 01:17:23;;;;;;;;;;;;;;;2.70;75.19;102926.96;107700;1255;60400;-81
2023/02/12 01:19:50;;;;;;;;;;;;;;;2.71;75.32;102929.82;107639;1257;74989;-81
2023/02/12 01:22:17;;;;;;;;;;;;;;;2.72;75.31;102928.98;107552;1256;124069;-81
2023/02/12 01:24:44;;;;;;;;;;;;;;;2.71;75.23;102937.58;107578;1257;72688;-81
2023/02/12 01:27:11;;;;;;;;;;;;;;;2.68;75.28;102940.92;107498;1255;123985;-81
2023/02/12 01:29:43;;;;;;;;;;;;;;;2.63;75.06;102942.71;107430;1257;60474;-81
2023/02/12 01:32:10;;;;;;;;;;;;;;;2.53;74.94;102938.55;107505;1257;72513;-81
2023/02/12 01:34:37;;;;;;;;;;;;;;;2.44;75.01;102942.88;107651;1254;123381;-81
2023/02/12 01:37:04;;;;;;;;;;;;;;;2.32;75.13;102943.84;107849;1253;72737;-81
2023/02/12 01:39:32;;;;;;;;;;;;;;;2.22;75.06;102946.90;108086;1254;123912;-81
2023/02/12 01:41:59;;;;;;;;;;;;;;;2.11;75.25;102948.33;108103;1254;59511;-81
2023/02/12 01:44:29;;;;;;;;;;;;;;;1.99;75.28;102953.06;108038;1254;124392;-81
2023/02/12 01:46:57;;;;;;;;;;;;;;;1.86;75.36;102960.64;107994;1254;66734;-81
2023/02/12 01:49:29;;;;;;;;;;;;;;;1.74;75.45;102964.74;107684;1253;71161;-81
2023/02/12 01:52:19;;;;;;;;;;;;;;;1.64;75.51;102970.31;107684;1254;124472;-80
2023/02/12 01:54:47;;;;;;;;;;;;;;;1.53;75.77;102970.10;107850;1253;60315;-80
2023/02/12 01:57:14;;;;;;;;;;;;;;;1.43;75.84;102968.25;107712;1254;123565;-80
2023/02/12 01:59:41;;;;;;;;;;;;;;;1.32;76.00;102968.98;107692;1253;66788;-80
2023/02/12 02:02:08;;;;;;;;;;;;;;;1.22;75.96;102967.42;107697;1254;71073;-80
2023/02/12 02:04:40;;;;;;;;;;;;;;;1.12;76.25;102970.83;108431;1254;123881;-81
2023/02/12 02:07:07;;;;;;;;;;;;;;;1.02;76.24;102974.84;107801;1254;60635;-80
2023/02/12 02:09:40;;;;;;;;;;;;;;;0.92;76.23;102984.45;107739;1254;123952;-81
2023/02/12 02:14:53;;;;;;;;;;;;;;;0.75;76.70;102983.18;107497;1254;125067;-82
2023/02/12 02:17:50;;;;;;;;;;;;;;;0.68;76.74;102984.21;107631;1254;58499;-80
2023/02/12 02:20:37;;;;;;;;;;;;;;;0.59;76.76;102979.92;108117;1254;59575;-81
2023/02/12 02:23:09;;;;;;;;;;;;;;;0.52;77.08;102982.67;108023;1254;73783;-82
2023/02/12 02:25:51;;;;;;;;;;;;;;;0.47;77.14;102988.48;107982;1254;65514;-82
2023/02/12 02:28:21;;;;;;;;;;;;;;;0.40;77.41;102990.60;108689;1257;124604;-82
2023/02/12 02:30:51;;;;;;;;;;;;;;;0.36;77.47;103000.49;108341;1254;60723;-81
2023/02/12 02:33:22;;;;;;;;;;;;;;;0.32;77.43;102995.77;107736;1255;124689;-81
2023/02/12 02:35:52;;;;;;;;;;;;;;;0.27;77.78;102995.80;108904;1255;71296;-81
2023/02/12 02:38:39;;;;;;;;;;;;;;;0.23;77.63;102998.84;108811;1255;65650;-81
2023/02/12 02:41:26;;;;;;;;;;;;;;;0.21;77.91;103000.51;108861;1253;72753;-81
2023/02/12 02:43:53;;;;;;;;;;;;;;;0.17;77.63;102997.39;107928;1254;59112;-82
2023/02/12 02:46:23;;;;;;;;;;;;;;;0.14;77.91;103000.17;108149;1254;124705;-81
2023/02/12 02:48:55;;;;;;;;;;;;;;;0.09;77.84;103002.27;108150;1254;72580;-80
2023/02/12 02:51:24;;;;;;;;;;;;;;;0.07;77.94;103005.78;107739;1254;124996;-80
2023/02/12 02:53:54;;;;;;;;;;;;;;;0.03;78.16;103000.55;108001;1254;72765;-80
2023/02/12 02:56:22;;;;;;;;;;;;;;;-0.00;78.17;102998.36;107845;1254;61306;-88
2023/02/12 02:58:57;;;;;;;;;;;;;;;-0.03;78.08;103010.13;107268;1258;125036;-88
2023/02/12 03:01:29;;;;;;;;;;;;;;;-0.06;78.25;103018.30;107500;1255;71980;-86
2023/02/12 03:04:03;;;;;;;;;;;;;;;-0.09;78.32;103015.04;107467;1254;124491;-87
2023/02/12 03:06:52;;;;;;;;;;;;;;;-0.11;78.34;103015.69;107579;1254;71436;-86
2023/02/12 03:09:33;;;;;;;;;;;;;;;-0.12;78.44;103018.89;107624;1257;124443;-86
2023/02/12 03:12:11;;;;;;;;;;;;;;;-0.15;78.39;103024.66;107587;1253;60325;-86
2023/02/12 03:14:40;;;;;;;;;;;;;;;-0.17;78.46;103033.58;107478;1254;124936;-87
2023/02/12 03:20:11;;;;;;;;;;;;;;;-0.24;78.68;103043.17;107711;1253;72544;-87
2023/02/12 03:22:39;;;;;;;;;;;;;;;-0.27;78.47;103043.86;107771;1254;124653;-88
2023/02/12 03:25:17;;;;;;;;;;;;;;;-0.30;78.61;103043.97;107698;1258;60340;-87
2023/02/12 03:27:48;;;;;;;;;;;;;;;-0.32;78.70;103046.83;107299;1256;124426;-87
2023/02/12 03:30:15;;;;;;;;;;;;;;;-0.34;78.75;103050.61;107327;1254;67319;-87
2023/02/12 03:32:49;;;;;;;;;;;;;;;-0.36;78.67;103054.67;107270;1254;124968;-88
2023/02/12 03:35:34;;;;;;;;;;;;;;;-0.37;78.76;103061.86;107456;1253;60235;-88
2023/02/12 03:38:03;;;;;;;;;;;;;;;-0.39;78.79;103065.42;107375;1254;61159;-87
2023/02/12 03:40:37;;;;;;;;;;;;;;;-0.42;78.80;103073.24;107347;1260;124741;-88
2023/02/12 03:43:04;;;;;;;;;;;;;;;-0.43;78.90;103081.94;107718;1254;67136;-87
2023/02/12 03:45:40;;;;;;;;;;;;;;;-0.44;79.00;103082.98;107514;1254;124388;-86
2023/02/12 03:48:20;;;;;;;;;;;;;;;-0.46;78.89;103084.64;107480;1254;60521;-87
2023/02/12 03:50:51;;;;;;;;;;;;;;;-0.47;79.04;103093.71;107255;1259;124402;-87
2023/02/12 03:53:18;;;;;;;;;;;;;;;-0.49;79.07;103097.95;107559;1254;73971;-87
2023/02/12 03:55:52;;;;;;;;;;;;;;;-0.51;78.88;103102.42;107470;1254;67120;-86
2023/02/12 03:58:22;;;;;;;;;;;;;;;-0.53;79.00;103103.07;107564;1254;124553;-88
2023/02/12 04:01:01;;;;;;;;;;;;;;;-0.54;78.93;103103.66;107635;1255;60408;-88
2023/02/12 04:03:31;;;;;;;;;;;;;;;-0.55;79.15;103104.36;107336;1260;124482;-87
2023/02/12 04:06:04;;;;;;;;;;;;;;;-0.59;79.01;103099.89;107402;1255;72227;-87
2023/02/12 04:08:32;;;;;;;;;;;;;;;-0.61;79.12;103092.11;107543;1255;66873;-87
2023/02/12 04:11:25;;;;;;;;;;;;;;;-0.62;79.11;103096.10;107469;1256;124219;-86
2023/02/12 04:14:23;;;;;;;;;;;;;;;-0.64;79.03;103097.39;107387;1254;60447;-87
2023/02/12 04:17:14;;;;;;;;;;;;;;;-0.67;79.18;103098.11;107430;1254;124765;-88
2023/02/12 04:20:13;;;;;;;;;;;;;;;-0.69;79.21;103103.38;107542;1254;72249;-87
2023/02/12 04:22:52;;;;;;;;;;;;;;;-0.73;79.14;103104.58;107557;1254;124641;-88
2023/02/12 04:25:22;;;;;;;;;;;;;;;-0.74;79.41;103107.15;107819;1254;72763;-81
2023/02/12 04:27:56;;;;;;;;;;;;;;;-0.77;79.35;103113.81;107626;1254;124738;-81
2023/02/12 04:30:28;;;;;;;;;;;;;;;-0.77;79.36;103116.55;107545;1254;60375;-81
2023/02/12 04:33:04;;;;;;;;;;;;;;;-0.76;79.45;103118.33;107631;1254;124937;-92
2023/02/12 04:35:34;;;;;;;;;;;;;;;-0.76;79.47;103116.26;107686;1254;67403;-86
2023/02/12 04:38:14;;;;;;;;;;;;;;;-0.77;79.44;103116.36;107428;1254;72663;-86
2023/02/12 04:40:46;;;;;;;;;;;;;;;-0.79;79.44;103117.88;107535;1253;124012;-86
2023/02/12 04:43:30;;;;;;;;;;;;;;;-0.82;79.61;103118.39;107279;1254;60457;-86
2023/02/12 04:45:57;;;;;;;;;;;;;;;-0.85;79.48;103117.88;107202;1254;123967;-88
2023/02/12 04:48:25;;;;;;;;;;;;;;;-0.87;79.63;103126.80;107360;1256;64958;-87
2023/02/12 04:50:52;;;;;;;;;;;;;;;-0.89;79.48;103130.53;107257;1253;123882;-88
2023/02/12 04:53:22;;;;;;;;;;;;;;;-0.92;79.63;103133.02;107336;1252;60488;-88
2023/02/12 04:55:50;;;;;;;;;;;;;;;-0.94;79.70;103140.15;107339;1254;60530;-88
2023/02/12 04:58:31;;;;;;;;;;;;;;;-0.97;79.79;103139.88;107349;1253;123844;-89
2023/02/12 05:01:04;;;;;;;;;;;;;;;-1.00;79.82;103133.04;107317;1254;65459;-88
2023/02/12 05:03:32;;;;;;;;;;;;;;;-1.02;79.77;103126.73;107334;1253;124103;-88
2023/02/12 05:06:03;;;;;;;;;;;;;;;-1.04;79.72;103131.35;107605;1252;60329;-88
2023/02/12 05:08:44;;;;;;;;;;;;;;;-1.08;79.79;103132.13;107418;1252;60616;-88
2023/02/12 05:11:11;;;;;;;;;;;;;;;-1.11;79.86;103132.30;107406;1254;73475;-88
2023/02/12 05:13:49;;;;;;;;;;;;;;;-1.15;79.99;103131.05;107499;1254;67141;-86
2023/02/12 05:16:16;;;;;;;;;;;;;;;-1.17;79.95;103131.95;107403;1254;124057;-86
2023/02/12 05:18:52;;;;;;;;;;;;;;;-1.20;79.89;103135.80;107350;1258;60360;-87
2023/02/12 05:21:19;;;;;;;;;;;;;;;-1.23;79.77;103133.75;107309;1256;123921;-87
2023/02/12 05:23:47;;;;;;;;;;;;;;;-1.26;80.02;103137.55;107278;1255;73689;-87
2023/02/12 05:26:24;;;;;;;;;;;;;;;-1.28;80.15;103142.98;107421;1255;65927;-86
2023/02/12 05:28:53;;;;;;;;;;;;;;;-1.30;80.21;103152.03;107500;1254;124085;-91
2023/02/12 05:31:33;;;;;;;;;;;;;;;-1.33;80.13;103150.05;107769;1253;60716;-86
2023/02/12 05:34:07;;;;;;;;;;;;;;;-1.35;80.26;103146.30;107450;1254;124101;-87
2023/02/12 05:36:34;;;;;;;;;;;;;;;-1.39;80.18;103142.02;107520;1253;74111;-87
2023/02/12 05:39:01;;;;;;;;;;;;;;;-1.41;80.13;103141.92;107900;1256;123712;-86
2023/02/12 05:41:33;;;;;;;;;;;;;;;-1.44;80.19;103143.51;107717;1255;72723;-86
2023/02/12 05:44:01;;;;;;;;;;;;;;;-1.46;80.25;103146.85;107646;1256;60495;-87
2023/02/12 05:46:28;;;;;;;;;;;;;;;-1.48;80.36;103155.23;107705;1254;123896;-86
2023/02/12 05:48:55;;;;;;;;;;;;;;;-1.49;80.44;103160.85;107786;1254;74264;-88
2023/02/12 05:51:37;;;;;;;;;;;;;;;-1.50;80.29;103160.00;107517;1258;123762;-88
2023/02/12 05:54:13;;;;;;;;;;;;;;;-1.51;80.35;103165.90;107136;1256;73002;-87
2023/02/12 05:56:44;;;;;;;;;;;;;;;-1.52;80.65;103167.08;107117;1256;125666;-86
2023/02/12 05:59:29;;;;;;;;;;;;;;;-1.51;80.48;103169.36;107355;1254;60355;-88
2023/02/12 06:01:56;;;;;;;;;;;;;;;-1.50;80.71;103165.40;107501;1254;72254;-87
2023/02/12 06:04:25;;;;;;;;;;;;;;;-1.48;80.78;103165.23;107600;1253;124372;-87
2023/02/12 06:06:54;;;;;;;;;;;;;;;-1.46;80.71;103169.64;107705;1254;71382;-87
2023/02/12 06:09:21;;;;;;;;;;;;;;;-1.44;80.69;103172.14;107223;1254;124775;-87
2023/02/12 06:12:02;;;;;;;;;;;;;;;-1.41;80.71;103178.16;107419;1257;60518;-87
2023/02/12 06:14:29;;;;;;;;;;;;;;;-1.38;80.77;103181.57;107472;1259;72425;-86
2023/02/12 06:17:15;;;;;;;;;;;;;;;-1.35;80.80;103180.96;107642;1255;124150;-87
2023/02/12 06:19:59;;;;;;;;;;;;;;;-1.31;80.77;103185.51;107186;1255;73104;-87
2023/02/12 06:22:29;;;;;;;;;;;;;;;-1.27;80.78;103191.86;107204;1254;124383;-86
2023/02/12 06:24:57;;;;;;;;;;;;;;;-1.21;80.99;103193.80;107421;1254;60613;-86
2023/02/12 06:27:30;;;;;;;;;;;;;;;-1.16;81.03;103195.88;107521;1253;124999;-87
2023/02/12 06:30:03;;;;;;;;;;;;;;;-1.10;80.96;103203.44;107803;1254;66134;-85
2023/02/12 06:32:31;;;;;;;;;;;;;;;-1.03;80.93;103205.26;107392;1254;70560;-86
2023/02/12 06:35:06;;;;;;;;;;;;;;;-0.96;81.08;103209.48;107571;1254;124227;-87
2023/02/12 06:37:35;;;;;;;;;;;;;;;-0.88;81.00;103214.45;107609;1254;60498;-86
2023/02/12 06:40:03;;;;;;;;;;;;;;;-0.80;80.91;103212.94;107871;1257;124248;-85
2023/02/12 06:42:35;;;;;;;;;;;;;;;-0.72;80.99;103212.45;107671;1259;68256;-86
2023/02/12 06:45:03;;;;;;;;;;;;;;;-0.64;81.04;103217.29;107475;1254;124491;-85
2023/02/12 06:47:32;;;;;;;;;;;;;;;-0.56;80.88;103221.96;107707;1253;60267;-88
2023/02/12 06:50:04;;;;;;;;;;;;;;;-0.48;80.78;103220.80;107722;1253;60360;-87
2023/02/12 06:52:31;;;;;;;;;;;;;;;-0.41;81.01;103223.20;107369;1254;123192;-88
2023/02/12 06:54:58;;;;;;;;;;;;;;;-0.34;80.75;103225.73;107539;1258;66599;-89
2023/02/12 06:57:29;;;;;;;;;;;;;;;-0.26;80.79;103227.48;107507;1254;124663;-89
2023/02/12 07:00:10;;;;;;;;;;;;;;;-0.16;80.81;103227.16;107440;1253;60523;-83
2023/02/12 07:02:53;;;;;;;;;;;;;;;-0.04;80.73;103221.14;107275;1254;124522;-82
2023/02/12 07:05:28;;;;;;;;;;;;;;;0.07;80.55;103223.48;107556;1254;72639;-82
2023/02/12 07:08:01;;;;;;;;;;;;;;;0.16;80.56;103226.36;107536;1254;65725;-83
2023/02/12 07:10:28;;;;;;;;;;;;;;;0.24;80.36;103226.51;107445;1254;124612;-83
2023/02/12 07:12:55;;;;;;;;;;;;;;;0.30;80.32;103220.48;107504;1254;59158;-83
2023/02/12 07:15:22;;;;;;;;;;;;;;;0.40;80.12;103217.86;107269;1255;124979;-83
2023/02/12 07:17:49;;;;;;;;;;;;;;;0.48;80.18;103213.77;107298;1254;73779;-83
2023/02/12 07:20:22;;;;;;;;;;;;;;;0.59;80.21;103211.20;107457;1254;65821;-82
2023/02/12 07:22:50;;;;;;;;;;;;;;;0.71;80.08;103208.19;107568;1257;124585;-82
2023/02/12 07:25:19;;;;;;;;;;;;;;;0.82;80.14;103211.16;107565;1254;59585;-82
2023/02/12 07:27:52;;;;;;;;;;;;;;;0.90;80.01;103210.50;107500;1253;124079;-83
2023/02/12 07:30:20;;;;;;;;;;;;;;;0.98;79.88;103209.39;107431;1254;73638;-83
2023/02/12 07:32:51;;;;;;;;;;;;;;;1.07;79.99;103210.52;107351;1259;124359;-81
2023/02/12 07:35:18;;;;;;;;;;;;;;;1.18;79.88;103211.97;107655;1254;72779;-81
2023/02/12 07:37:57;;;;;;;;;;;;;;;1.27;79.91;103215.48;107417;1259;60408;-83
2023/02/12 07:40:25;;;;;;;;;;;;;;;1.38;79.94;103214.15;107336;1255;124146;-83
2023/02/12 07:42:55;;;;;;;;;;;;;;;1.49;79.84;103219.09;107812;1255;73135;-83
2023/02/12 07:45:25;;;;;;;;;;;;;;;1.62;79.91;103221.02;107549;1257;124439;-83
2023/02/12 07:47:53;;;;;;;;;;;;;;;1.72;79.71;103217.05;107459;1256;72769;-83
2023/02/12 07:50:29;;;;;;;;;;;;;;;1.81;79.63;103210.38;107335;1256;60447;-83
2023/02/12 07:53:06;;;;;;;;;;;;;;;1.91;79.60;103206.65;107538;1254;123759;-83
2023/02/12 07:55:36;;;;;;;;;;;;;;;1.99;79.41;103199.99;107809;1254;72632;-83
2023/02/12 07:58:03;;;;;;;;;;;;;;;2.09;79.30;103195.45;107878;1253;123561;-83
2023/02/12 08:00:30;;;;;;;;;;;;;;;2.19;79.23;103194.89;107825;1254;70389;-83
2023/02/12 08:02:57;;;;;;;;;;;;;;;2.29;79.19;103194.44;107601;1258;124097;-82
2023/02/12 08:05:24;;;;;;;;;;;;;;;2.39;79.19;103193.66;107861;1253;60645;-83
2023/02/12 08:07:52;;;;;;;;;;;;;;;2.49;79.06;103191.58;107677;1253;72086;-86
2023/02/12 08:10:25;;;;;;;;;;;;;;;2.59;78.99;103190.27;107535;1254;124052;-87
2023/02/12 08:12:53;;;;;;;;;;;;;;;2.70;78.90;103190.99;107578;1257;72670;-89
2023/02/12 08:15:20;;;;;;;;;;;;;;;2.81;78.83;103193.89;107483;1253;123992;-90
2023/02/12 08:17:54;;;;;;;;;;;;;;;2.88;78.65;103197.39;107494;1257;60335;-87
2023/02/12 08:20:33;;;;;;;;;;;;;;;2.95;78.66;103197.03;107669;1254;73863;-87
2023/02/12 08:23:03;;;;;;;;;;;;;;;3.02;78.49;103199.94;107338;1254;123274;-88
2023/02/12 08:26:02;;;;;;;;;;;;;;;3.06;78.13;103200.80;107344;1254;71444;-91
2023/02/12 08:28:29;;;;;;;;;;;;;;;3.06;78.03;103205.17;107399;1262;123822;-87
2023/02/12 08:31:06;;;;;;;;;;;;;;;3.08;77.82;103208.41;107546;1259;60131;-85
2023/02/12 08:33:39;;;;;;;;;;;;;;;3.15;77.80;103210.65;107020;1260;124301;-85
2023/02/12 08:36:09;;;;;;;;;;;;;;;3.25;78.02;103210.25;107176;1259;64588;-83
2023/02/12 08:38:39;;;;;;;;;;;;;;;3.36;77.70;103209.70;107311;1260;71391;-83
2023/02/12 08:41:10;;;;;;;;;;;;;;;3.44;77.47;103202.66;107378;1259;124155;-82
2023/02/12 08:43:46;;;;;;;;;;;;;;;3.56;77.37;103201.80;107082;1261;59699;-89
2023/02/12 08:46:15;;;;;;;;;;;;;;;3.68;77.40;103189.94;106967;1259;124179;-91
2023/02/12 08:49:01;;;;;;;;;;;;;;;3.82;77.37;103187.16;106954;1259;66798;-89
2023/02/12 08:51:42;;;;;;;;;;;;;;;4.01;77.31;103185.64;106829;1260;124153;-87
2023/02/12 08:54:17;;;;;;;;;;;;;;;4.17;77.09;103191.00;107149;1260;60675;-88
2023/02/12 08:56:44;;;;;;;;;;;;;;;4.25;76.79;103191.59;106964;1260;124485;-88
2023/02/12 08:59:17;;;;;;;;;;;;;;;4.33;76.63;103191.23;107201;1259;74212;-87
2023/02/12 09:01:50;;;;;;;;;;;;;;;4.42;76.51;103190.84;107105;1260;67589;-88
2023/02/12 09:04:20;;;;;;;;;;;;;;;4.48;76.16;103188.92;107184;1260;123760;-90
2023/02/12 09:06:55;;;;;;;;;;;;;;;4.55;76.17;103186.08;107632;1261;60378;-88
2023/02/12 09:09:22;;;;;;;;;;;;;;;4.64;76.06;103187.39;107418;1254;123917;-88
2023/02/12 09:11:50;;;;;;;;;;;;;;;4.73;76.04;103186.79;107705;1254;73068;-89
2023/02/12 09:14:22;;;;;;;;;;;;;;;4.76;75.68;103189.85;107752;1256;65855;-84
2023/02/12 09:16:57;;;;;;;;;;;;;;;4.76;75.55;103188.11;107638;1255;123617;-88
2023/02/12 09:19:26;;;;;;;;;;;;;;;4.77;75.41;103186.44;107198;1260;60358;-87
2023/02/12 09:22:00;;;;;;;;;;;;;;;4.75;75.14;103183.33;107138;1254;123688;-93
2023/02/12 09:24:27;;;;;;;;;;;;;;;4.70;75.01;103175.74;107551;1259;72653;-90
2023/02/12 09:26:54;;;;;;;;;;;;;;;4.65;74.95;103170.09;107776;1256;124032;-89
2023/02/12 09:29:21;;;;;;;;;;;;;;;4.63;74.94;103168.16;107830;1256;71975;-91
2023/02/12 09:31:58;;;;;;;;;;;;;;;4.61;74.89;103169.70;107785;1254;60463;-91
2023/02/12 09:34:25;;;;;;;;;;;;;;;4.64;74.97;103172.75;107551;1254;123392;-89
2023/02/12 09:36:52;;;;;;;;;;;;;;;4.70;74.96;103174.86;107469;1254;74811;-89
2023/02/12 09:39:22;;;;;;;;;;;;;;;4.70;74.64;103180.44;107317;1254;124306;-86
2023/02/12 09:41:58;;;;;;;;;;;;;;;4.68;74.59;103188.11;107566;1259;72370;-85
2023/02/12 09:44:25;;;;;;;;;;;;;;;4.72;74.69;103191.22;107467;1254;60585;-88
2023/02/12 09:47:05;;;;;;;;;;;;;;;4.73;74.41;103188.35;107352;1254;124122;-87
2023/02/12 09:49:43;;;;;;;;;;;;;;;4.78;74.40;103182.52;107369;1257;72543;-89
2023/02/12 09:52:21;;;;;;;;;;;;;;;4.86;74.47;103174.51;107558;1253;124240;-89
2023/02/12 09:54:49;;;;;;;;;;;;;;;4.97;74.44;103171.69;107709;1254;73200;-82
2023/02/12 09:57:28;;;;;;;;;;;;;;;5.04;74.35;103162.67;107698;1254;124115;-83
2023/02/12 10:00:29;;;;;;;;;;;;;;;5.14;74.23;103161.40;107974;1254;60562;-83
2023/02/12 10:03:10;;;;;;;;;;;;;;;5.18;73.98;103160.71;107771;1254;123761;-88
2023/02/12 10:05:42;;;;;;;;;;;;;;;5.24;73.92;103161.10;107847;1254;64908;-85
2023/02/12 10:08:09;;;;;;;;;;;;;;;5.33;73.98;103164.23;108385;1255;71502;-85
2023/02/12 10:10:46;;;;;;;;;;;;;;;5.44;73.95;103164.67;107448;1254;123622;-83
2023/02/12 10:13:14;;;;;;;;;;;;;;;5.51;73.61;103167.51;107653;1254;60449;-81
2023/02/12 10:15:50;;;;;;;;;;;;;;;5.52;73.33;103168.08;107627;1254;124026;-83
2023/02/12 10:18:27;;;;;;;;;;;;;;;5.51;73.26;103165.27;107700;1253;65990;-82
2023/02/12 10:21:06;;;;;;;;;;;;;;;5.51;73.18;103156.94;107658;1254;123941;-82
2023/02/12 10:23:33;;;;;;;;;;;;;;;5.58;73.19;103151.96;107577;1254;60476;-82
2023/02/12 10:26:10;;;;;;;;;;;;;;;5.64;73.16;103147.19;107496;1253;60771;-89
2023/02/12 10:28:47;;;;;;;;;;;;;;;5.70;72.93;103143.13;107556;1257;123471;-90
2023/02/12 10:31:25;;;;;;;;;;;;;;;5.69;72.76;103139.92;107079;1254;66142;-88
2023/02/12 10:33:57;;;;;;;;;;;;;;;5.75;72.85;103138.84;107110;1254;125818;-90
2023/02/12 10:36:36;;;;;;;;;;;;;;;5.78;72.70;103134.45;107387;1256;60556;-91
2023/02/12 10:39:09;;;;;;;;;;;;;;;5.79;72.65;103121.97;108148;1254;124825;-82
2023/02/12 10:42:05;;;;;;;;;;;;;;;;;;;;;
2023/02/12 10:44:40;;;;;;;;;;;;;;;5.87;72.37;103113.38;108091;1253;65791;-82
2023/02/12 10:47:26;;;;;;;;;;;;;;;5.89;72.33;103105.84;108056;1254;124062;-83
2023/02/12 10:50:00;;;;;;;;;;;;;;;5.93;72.39;103107.64;107900;1254;59110;-82
2023/02/12 10:52:48;;;;;;;;;;;;;;;5.95;72.19;103105.90;107408;1259;123991;-89
2023/02/12 10:55:22;;;;;;;;;;;;;;;5.97;72.34;103099.27;107330;1255;73876;-83
2023/02/12 10:57:49;;;;;;;;;;;;;;;6.02;72.26;103097.77;107643;1254;123403;-81
2023/02/12 11:00:17;;;;;;;;;;;;;;;6.04;72.12;103098.77;107840;1254;72746;-83
2023/02/12 11:02:50;;;;;;;;;;;;;;;6.03;72.05;103095.42;107848;1254;124146;-85
2023/02/12 11:05:25;;;;;;;;;;;;;;;6.07;72.10;103097.08;107859;1254;59202;-81
2023/02/12 11:07:52;;;;;;;;;;;;;;;6.09;72.08;103099.66;107712;1256;72947;-82
2023/02/12 11:10:21;;;;;;;;;;;;;;;6.09;71.96;103103.84;107821;1259;123720;-83
2023/02/12 11:12:57;;;;;;;;;;;;;;;6.03;71.90;103100.44;107925;1254;71110;-83
2023/02/12 11:15:25;;;;;;;;;;;;;;;5.99;71.83;103101.30;107788;1258;124353;-82
2023/02/12 11:17:57;;;;;;;;;;;;;;;5.96;71.85;103103.73;107639;1255;58709;-81
2023/02/12 11:20:29;;;;;;;;;;;;;;;5.95;71.85;103106.04;107833;1256;74408;-82
2023/02/12 11:22:57;;;;;;;;;;;;;;;5.99;71.98;103102.05;107847;1259;123552;-82
2023/02/12 11:25:26;;;;;;;;;;;;;;;6.08;72.17;103091.89;107995;1259;72737;-82
2023/02/12 11:28:00;;;;;;;;;;;;;;;6.14;72.15;103087.15;107451;1259;123443;-81
2023/02/12 11:30:27;;;;;;;;;;;;;;;6.20;72.15;103078.27;107456;1256;60311;-80
2023/02/12 11:32:54;;;;;;;;;;;;;;;6.23;72.03;103071.02;107849;1256;123657;-81
2023/02/12 11:35:24;;;;;;;;;;;;;;;6.26;72.12;103071.40;107814;1256;66859;-81
2023/02/12 11:37:53;;;;;;;;;;;;;;;6.24;71.88;103074.38;107779;1256;72560;-80
2023/02/12 11:40:22;;;;;;;;;;;;;;;6.21;71.95;103072.60;107978;1257;124600;-80
2023/02/12 11:43:09;;;;;;;;;;;;;;;6.21;71.84;103066.84;108821;1255;59162;-81
2023/02/12 11:45:50;;;;;;;;;;;;;;;6.18;71.82;103068.02;107561;1257;124819;-81
2023/02/12 11:48:32;;;;;;;;;;;;;;;6.19;71.85;103069.42;107753;1261;66129;-81
2023/02/12 11:51:02;;;;;;;;;;;;;;;6.23;71.97;103072.08;109021;1257;124049;-81
2023/02/12 11:53:31;;;;;;;;;;;;;;;6.31;72.13;103072.98;108972;1256;58264;-81
2023/02/12 11:56:01;;;;;;;;;;;;;;;6.38;72.10;103068.19;108958;1255;60365;-80
2023/02/12 11:58:28;;;;;;;;;;;;;;;6.51;72.25;103061.50;108762;1256;123508;-80
2023/02/12 12:00:57;;;;;;;;;;;;;;;6.64;72.20;103064.46;108933;1254;65908;-80
2023/02/12 12:03:25;;;;;;;;;;;;;;;6.73;71.87;103071.11;108962;1254;124153;-80
2023/02/12 12:06:01;;;;;;;;;;;;;;;6.78;71.84;103071.14;108900;1254;58621;-79
2023/02/12 12:08:35;;;;;;;;;;;;;;;6.83;71.73;103070.11;108918;1257;58735;-80
2023/02/12 12:11:23;;;;;;;;;;;;;;;6.87;71.65;103073.06;108785;1257;123293;-79
2023/02/12 12:13:56;;;;;;;;;;;;;;;6.94;71.72;103074.61;108954;1254;65778;-79
2023/02/12 12:19:52;;;;;;;;;;;;;;;6.89;71.30;103071.42;107670;1258;60432;-86
2023/02/12 12:22:29;;;;;;;;;;;;;;;6.83;71.23;103066.46;107508;1257;123640;-89
2023/02/12 12:24:59;;;;;;;;;;;;;;;6.75;71.16;103056.58;107514;1260;72679;-87
2023/02/12 12:30:28;;;;;;;;;;;;;;;6.71;71.48;103053.81;107882;1254;71196;-90
2023/02/12 12:32:57;;;;;;;;;;;;;;;6.66;71.21;103046.13;107591;1255;124125;-89
2023/02/12 12:35:29;;;;;;;;;;;;;;;6.56;71.21;103047.44;108015;1255;59131;-88
2023/02/12 12:38:01;;;;;;;;;;;;;;;6.52;71.30;103045.91;107796;1257;73926;-91
2023/02/12 12:40:41;;;;;;;;;;;;;;;6.48;71.15;103042.23;107301;1256;123759;-89
2023/02/12 12:43:28;;;;;;;;;;;;;;;6.47;71.58;103035.54;107623;1255;72790;-87
2023/02/12 12:46:22;;;;;;;;;;;;;;;6.49;71.61;103031.18;107992;1259;123461;-89
2023/02/12 12:48:54;;;;;;;;;;;;;;;6.56;71.93;103024.22;107547;1257;60287;-92
2023/02/12 12:51:25;;;;;;;;;;;;;;;6.66;71.98;103018.73;107712;1256;123830;-91
2023/02/12 12:54:13;;;;;;;;;;;;;;;6.67;71.85;103010.04;107415;1255;67383;-90
2023/02/12 12:56:51;;;;;;;;;;;;;;;6.63;71.73;103011.17;107777;1256;71468;-82
2023/02/12 12:59:37;;;;;;;;;;;;;;;6.59;71.78;103007.05;107509;1256;60447;-84
2023/02/12 13:02:23;;;;;;;;;;;;;;;6.63;71.94;102998.05;107511;1256;60392;-84
2023/02/12 13:05:01;;;;;;;;;;;;;;;6.63;71.84;102996.49;107774;1257;124259;-82
2023/02/12 13:07:36;;;;;;;;;;;;;;;6.55;71.69;102996.77;107650;1256;66860;-85
2023/02/12 13:10:16;;;;;;;;;;;;;;;6.54;71.87;102997.52;107554;1255;123994;-84